PWSweather.com
Personal Weather Stations
Station Observations
IONTARIO88
Lincoln, ON L0R

Lincoln, ON L0R

Lat: 43.1763563, Lon: -79.4719525

Elevation: 297

Station Type: Davis Vantage Pro 2 Plus

http://www.beamsvillewx.ca

High Low Average
Temperature 51.4°F10.8°C 41.0°F5.0°C 45.7°F7.6°C
Dew Point 49.8°F9.9°C 37.1°F2.8°C 43.7°F6.5°C
Winds 11.0 mph 17.7 kmh Calm Calm 3.0 mph SSW4.8 kmh SSW
Wind Gusts 20.0 mph32.2 kmh -- 6.0 mph9.7 kmh
Humidity 94% 86% 93%
Pressure 29.99 in1015.6 mb 29.75 in1007.5 mb -
Precipitation 0.46 in11.7 mm - -
Hour Temp Dew Point Humidity Winds Wind Gusts Pressure Precip Precip Rate Daily Precip Total
12:00 AM 49.5°F9.7°C 47.5°F8.6°C 93% 1.0 mph SSW1.6 kmh SSW 3.0 mph4.8 kmh 30.02 in1016.6 mb 0.02 in0.5 mm 0.00 in0.0 mm 0.02 in0.5 mm
12:15 AM 48.6°F9.2°C 46.6°F8.1°C 93% 1.0 mph SSW1.6 kmh SSW 4.0 mph6.4 kmh 30.01 in1016.3 mb 0.02 in0.5 mm 0.00 in0.0 mm 0.02 in0.5 mm
12:30 AM 48.0°F8.9°C 46.1°F7.8°C 93% Calm Calm 1.0 mph1.6 kmh 30.00 in1015.9 mb 0.02 in0.5 mm 0.00 in0.0 mm 0.01 in0.3 mm
12:45 AM 47.5°F8.6°C 45.6°F7.6°C 93% Calm Calm -- 30.00 in1015.9 mb 0.02 in0.5 mm 0.00 in0.0 mm 0.01 in0.3 mm
01:00 AM 47.3°F8.5°C 45.4°F7.4°C 93% Calm Calm -- 29.99 in1015.6 mb 0.02 in0.5 mm 0.00 in0.0 mm 0.02 in0.5 mm
01:15 AM 46.9°F8.3°C 45.3°F7.4°C 94% Calm Calm -- 29.99 in1015.6 mb 0.02 in0.5 mm 0.00 in0.0 mm 0.02 in0.5 mm
01:30 AM 46.9°F8.3°C 45.3°F7.4°C 94% Calm Calm -- 29.98 in1015.2 mb 0.01 in0.3 mm 0.00 in0.0 mm 0.02 in0.5 mm
01:45 AM 46.9°F8.3°C 45.0°F7.2°C 93% Calm Calm -- 29.97 in1014.9 mb 0.02 in0.5 mm 0.04 in1.0 mm 0.02 in0.5 mm
02:00 AM 46.8°F8.2°C 45.1°F7.3°C 94% Calm Calm -- 29.97 in1014.9 mb 0.01 in0.3 mm 0.00 in0.0 mm 0.02 in0.5 mm
02:15 AM 46.0°F7.8°C 44.1°F6.7°C 93% Calm Calm -- 29.96 in1014.6 mb 0.01 in0.3 mm 0.00 in0.0 mm 0.02 in0.5 mm
02:30 AM 45.9°F7.7°C 44.2°F6.8°C 94% Calm Calm -- 29.95 in1014.2 mb 0.01 in0.3 mm 0.00 in0.0 mm 0.02 in0.5 mm
02:45 AM 45.5°F7.5°C 43.9°F6.6°C 94% Calm Calm -- 29.95 in1014.2 mb 0.01 in0.3 mm 0.00 in0.0 mm 0.03 in0.8 mm
03:00 AM 45.3°F7.4°C 43.7°F6.5°C 94% Calm Calm -- 29.94 in1013.9 mb 0.02 in0.5 mm 0.01 in0.3 mm 0.04 in1.0 mm
03:15 AM 45.3°F7.4°C 43.7°F6.5°C 94% Calm Calm -- 29.94 in1013.9 mb 0.02 in0.5 mm 0.00 in0.0 mm 0.05 in1.3 mm
03:30 AM 45.3°F7.4°C 43.7°F6.5°C 94% Calm Calm -- 29.93 in1013.5 mb 0.02 in0.5 mm 0.00 in0.0 mm 0.05 in1.3 mm
03:45 AM 45.7°F7.6°C 44.1°F6.7°C 94% Calm Calm -- 29.92 in1013.2 mb 0.02 in0.5 mm 0.00 in0.0 mm 0.06 in1.5 mm
04:00 AM 45.9°F7.7°C 44.2°F6.8°C 94% Calm Calm -- 29.92 in1013.2 mb 0.02 in0.5 mm 0.00 in0.0 mm 0.06 in1.5 mm
04:15 AM 45.9°F7.7°C 44.2°F6.8°C 94% Calm Calm -- 29.92 in1013.2 mb 0.02 in0.5 mm 0.00 in0.0 mm 0.07 in1.8 mm
04:30 AM 46.0°F7.8°C 44.4°F6.9°C 94% Calm Calm -- 29.92 in1013.2 mb 0.02 in0.5 mm 0.00 in0.0 mm 0.07 in1.8 mm
04:45 AM 46.0°F7.8°C 44.4°F6.9°C 94% Calm Calm 1.0 mph1.6 kmh 29.91 in1012.9 mb 0.04 in1.0 mm 0.08 in2.0 mm 0.09 in2.3 mm
05:00 AM 46.0°F7.8°C 44.4°F6.9°C 94% Calm Calm -- 29.91 in1012.9 mb 0.04 in1.0 mm 0.00 in0.0 mm 0.10 in2.5 mm
05:15 AM 45.9°F7.7°C 44.2°F6.8°C 94% Calm Calm -- 29.90 in1012.5 mb 0.04 in1.0 mm 0.00 in0.0 mm 0.11 in2.8 mm
05:30 AM 45.7°F7.6°C 44.1°F6.7°C 94% Calm Calm 1.0 mph1.6 kmh 29.90 in1012.5 mb 0.06 in1.5 mm 0.08 in2.0 mm 0.13 in3.3 mm
05:45 AM 45.3°F7.4°C 43.7°F6.5°C 94% Calm Calm -- 29.90 in1012.5 mb 0.04 in1.0 mm 0.00 in0.0 mm 0.13 in3.3 mm
06:00 AM 45.3°F7.4°C 43.7°F6.5°C 94% Calm Calm -- 29.89 in1012.2 mb 0.04 in1.0 mm 0.00 in0.0 mm 0.14 in3.6 mm
06:15 AM 45.1°F7.3°C 43.5°F6.4°C 94% Calm Calm -- 29.89 in1012.2 mb 0.05 in1.3 mm 0.04 in1.0 mm 0.17 in4.3 mm
06:30 AM 45.0°F7.2°C 43.3°F6.3°C 94% Calm Calm 2.0 mph3.2 kmh 29.89 in1012.2 mb 0.06 in1.5 mm 0.04 in1.0 mm 0.18 in4.6 mm
06:45 AM 45.0°F7.2°C 43.3°F6.3°C 94% Calm Calm 3.0 mph4.8 kmh 29.89 in1012.2 mb 0.06 in1.5 mm 0.00 in0.0 mm 0.20 in5.1 mm
07:00 AM 45.0°F7.2°C 43.3°F6.3°C 94% Calm Calm 3.0 mph4.8 kmh 29.89 in1012.2 mb 0.06 in1.5 mm 0.00 in0.0 mm 0.20 in5.1 mm
07:15 AM 45.0°F7.2°C 43.3°F6.3°C 94% Calm Calm -- 29.89 in1012.2 mb 0.06 in1.5 mm 0.00 in0.0 mm 0.22 in5.6 mm
07:30 AM 45.0°F7.2°C 43.3°F6.3°C 94% Calm Calm -- 29.88 in1011.9 mb 0.05 in1.3 mm 0.00 in0.0 mm 0.23 in5.8 mm
07:45 AM 45.3°F7.4°C 43.7°F6.5°C 94% Calm Calm -- 29.88 in1011.9 mb 0.03 in0.8 mm 0.00 in0.0 mm 0.23 in5.8 mm
08:00 AM 45.7°F7.6°C 44.1°F6.7°C 94% Calm Calm -- 29.88 in1011.9 mb 0.03 in0.8 mm 0.00 in0.0 mm 0.24 in6.1 mm
08:15 AM 46.2°F7.9°C 44.6°F7.0°C 94% Calm Calm -- 29.87 in1011.5 mb 0.02 in0.5 mm 0.00 in0.0 mm 0.24 in6.1 mm
08:30 AM 46.8°F8.2°C 45.1°F7.3°C 94% Calm Calm -- 29.86 in1011.2 mb 0.01 in0.3 mm 0.00 in0.0 mm 0.24 in6.1 mm
08:45 AM 47.1°F8.4°C 45.5°F7.5°C 94% Calm Calm -- 29.86 in1011.2 mb 0.02 in0.5 mm 0.04 in1.0 mm 0.24 in6.1 mm
09:00 AM 47.5°F8.6°C 45.8°F7.7°C 94% Calm Calm -- 29.86 in1011.2 mb 0.01 in0.3 mm 0.00 in0.0 mm 0.24 in6.1 mm
09:15 AM 47.8°F8.8°C 46.2°F7.9°C 94% Calm Calm -- 29.85 in1010.8 mb 0.01 in0.3 mm 0.00 in0.0 mm 0.24 in6.1 mm
09:30 AM 48.2°F9.0°C 46.6°F8.1°C 94% Calm Calm 2.0 mph3.2 kmh 29.85 in1010.8 mb 0.02 in0.5 mm 0.04 in1.0 mm 0.25 in6.4 mm
09:45 AM 47.1°F8.4°C 45.5°F7.5°C 94% 2.0 mph SW3.2 kmh SW 5.0 mph8.0 kmh 29.85 in1010.8 mb 0.02 in0.5 mm 0.00 in0.0 mm 0.26 in6.6 mm
10:00 AM 45.5°F7.5°C 43.9°F6.6°C 94% 3.0 mph SW4.8 kmh SW 5.0 mph8.0 kmh 29.84 in1010.5 mb 0.02 in0.5 mm 0.00 in0.0 mm 0.26 in6.6 mm
10:15 AM 44.8°F7.1°C 43.2°F6.2°C 94% 3.0 mph WSW4.8 kmh WSW 7.0 mph11.3 kmh 29.84 in1010.5 mb 0.02 in0.5 mm 0.00 in0.0 mm 0.26 in6.6 mm
10:30 AM 44.4°F6.9°C 42.8°F6.0°C 94% 4.0 mph NW6.4 kmh NW 7.0 mph11.3 kmh 29.84 in1010.5 mb 0.02 in0.5 mm 0.00 in0.0 mm 0.27 in6.9 mm
10:45 AM 44.1°F6.7°C 42.4°F5.8°C 94% 5.0 mph NW8.0 kmh NW 8.0 mph12.9 kmh 29.84 in1010.5 mb 0.02 in0.5 mm 0.00 in0.0 mm 0.28 in7.1 mm
11:00 AM 43.5°F6.4°C 41.9°F5.5°C 94% 4.0 mph NW6.4 kmh NW 9.0 mph14.5 kmh 29.83 in1010.2 mb 0.03 in0.8 mm 0.01 in0.3 mm 0.29 in7.4 mm
11:15 AM 43.9°F6.6°C 42.3°F5.7°C 94% 3.0 mph NW4.8 kmh NW 8.0 mph12.9 kmh 29.83 in1010.2 mb 0.04 in1.0 mm 0.04 in1.0 mm 0.30 in7.6 mm
11:30 AM 43.5°F6.4°C 41.9°F5.5°C 94% 3.0 mph NW4.8 kmh NW 7.0 mph11.3 kmh 29.83 in1010.2 mb 0.04 in1.0 mm 0.00 in0.0 mm 0.31 in7.9 mm
11:45 AM 43.7°F6.5°C 42.1°F5.6°C 94% 4.0 mph NNW6.4 kmh NNW 7.0 mph11.3 kmh 29.82 in1009.8 mb 0.04 in1.0 mm 0.00 in0.0 mm 0.32 in8.1 mm
12:00 PM 43.9°F6.6°C 42.3°F5.7°C 94% 3.0 mph NNW4.8 kmh NNW 6.0 mph9.7 kmh 29.82 in1009.8 mb 0.04 in1.0 mm 0.00 in0.0 mm 0.33 in8.4 mm
12:15 PM 43.9°F6.6°C 42.3°F5.7°C 94% 4.0 mph NNW6.4 kmh NNW 8.0 mph12.9 kmh 29.82 in1009.8 mb 0.05 in1.3 mm 0.04 in1.0 mm 0.35 in8.9 mm
12:30 PM 43.9°F6.6°C 42.3°F5.7°C 94% 3.0 mph NW4.8 kmh NW 7.0 mph11.3 kmh 29.81 in1009.5 mb 0.05 in1.3 mm 0.00 in0.0 mm 0.35 in8.9 mm
12:45 PM 43.7°F6.5°C 42.1°F5.6°C 94% 4.0 mph NW6.4 kmh NW 7.0 mph11.3 kmh 29.81 in1009.5 mb 0.04 in1.0 mm 0.00 in0.0 mm 0.36 in9.1 mm
01:00 PM 43.2°F6.2°C 41.6°F5.3°C 94% 4.0 mph NW6.4 kmh NW 8.0 mph12.9 kmh 29.81 in1009.5 mb 0.04 in1.0 mm 0.00 in0.0 mm 0.37 in9.4 mm
01:15 PM 43.9°F6.6°C 42.3°F5.7°C 94% 3.0 mph NW4.8 kmh NW 7.0 mph11.3 kmh 29.80 in1009.1 mb 0.03 in0.8 mm 0.00 in0.0 mm 0.38 in9.7 mm
01:30 PM 44.1°F6.7°C 42.4°F5.8°C 94% 4.0 mph NW6.4 kmh NW 6.0 mph9.7 kmh 29.80 in1009.1 mb 0.04 in1.0 mm 0.04 in1.0 mm 0.39 in9.9 mm
01:45 PM 45.1°F7.3°C 43.5°F6.4°C 94% 3.0 mph NW4.8 kmh NW 7.0 mph11.3 kmh 29.79 in1008.8 mb 0.04 in1.0 mm 0.00 in0.0 mm 0.40 in10.2 mm
02:00 PM 46.0°F7.8°C 44.4°F6.9°C 94% 3.0 mph NW4.8 kmh NW 6.0 mph9.7 kmh 29.79 in1008.8 mb 0.03 in0.8 mm 0.00 in0.0 mm 0.40 in10.2 mm
02:15 PM 46.6°F8.1°C 44.9°F7.2°C 94% 3.0 mph NNW4.8 kmh NNW 8.0 mph12.9 kmh 29.79 in1008.8 mb 0.02 in0.5 mm 0.00 in0.0 mm 0.40 in10.2 mm
02:30 PM 46.2°F7.9°C 44.6°F7.0°C 94% 2.0 mph NNW3.2 kmh NNW 5.0 mph8.0 kmh 29.79 in1008.8 mb 0.01 in0.3 mm 0.00 in0.0 mm 0.40 in10.2 mm
02:45 PM 46.0°F7.8°C 44.4°F6.9°C 94% 2.0 mph NNW3.2 kmh NNW 4.0 mph6.4 kmh 29.79 in1008.8 mb 0.01 in0.3 mm 0.00 in0.0 mm 0.41 in10.4 mm
03:00 PM 48.2°F9.0°C 46.6°F8.1°C 94% 2.0 mph NNW3.2 kmh NNW 4.0 mph6.4 kmh 29.78 in1008.5 mb 0.01 in0.3 mm 0.00 in0.0 mm 0.41 in10.4 mm
03:15 PM 48.7°F9.3°C 47.1°F8.4°C 94% 2.0 mph NNW3.2 kmh NNW 4.0 mph6.4 kmh 29.77 in1008.1 mb 0.01 in0.3 mm 0.00 in0.0 mm 0.41 in10.4 mm
03:30 PM 49.3°F9.6°C 47.6°F8.7°C 94% 1.0 mph NNW1.6 kmh NNW 3.0 mph4.8 kmh 29.77 in1008.1 mb 0.01 in0.3 mm 0.00 in0.0 mm 0.41 in10.4 mm
03:45 PM 49.8°F9.9°C 48.2°F9.0°C 94% 1.0 mph NNW1.6 kmh NNW 4.0 mph6.4 kmh 29.77 in1008.1 mb 0.00 in0.0 mm 0.00 in0.0 mm 0.41 in10.4 mm
04:00 PM 50.4°F10.2°C 48.7°F9.3°C 94% Calm Calm 3.0 mph4.8 kmh 29.76 in1007.8 mb 0.00 in0.0 mm 0.00 in0.0 mm 0.41 in10.4 mm
04:15 PM 50.5°F10.3°C 48.9°F9.4°C 94% 1.0 mph NNW1.6 kmh NNW 3.0 mph4.8 kmh 29.76 in1007.8 mb 0.00 in0.0 mm 0.00 in0.0 mm 0.41 in10.4 mm
04:30 PM 51.1°F10.6°C 49.4°F9.7°C 94% Calm Calm 3.0 mph4.8 kmh 29.76 in1007.8 mb 0.00 in0.0 mm 0.00 in0.0 mm 0.41 in10.4 mm
04:45 PM 50.9°F10.5°C 49.2°F9.6°C 94% Calm Calm 2.0 mph3.2 kmh 29.76 in1007.8 mb 0.00 in0.0 mm 0.00 in0.0 mm 0.41 in10.4 mm
05:00 PM 51.4°F10.8°C 49.8°F9.9°C 94% Calm Calm 2.0 mph3.2 kmh 29.75 in1007.5 mb 0.00 in0.0 mm 0.00 in0.0 mm 0.41 in10.4 mm
05:15 PM 51.4°F10.8°C 49.8°F9.9°C 94% Calm Calm 2.0 mph3.2 kmh 29.75 in1007.5 mb 0.00 in0.0 mm 0.00 in0.0 mm 0.41 in10.4 mm
05:30 PM 51.4°F10.8°C 49.5°F9.7°C 93% Calm Calm 1.0 mph1.6 kmh 29.75 in1007.5 mb 0.00 in0.0 mm 0.00 in0.0 mm 0.41 in10.4 mm
05:45 PM 51.3°F10.7°C 49.3°F9.6°C 93% 1.0 mph NNW1.6 kmh NNW 2.0 mph3.2 kmh 29.75 in1007.5 mb 0.01 in0.3 mm 0.04 in1.0 mm 0.42 in10.7 mm
06:00 PM 50.5°F10.3°C 48.6°F9.2°C 93% Calm Calm -- 29.75 in1007.5 mb 0.02 in0.5 mm 0.01 in0.3 mm 0.43 in10.9 mm
06:15 PM 50.0°F10.0°C 48.1°F8.9°C 93% 1.0 mph NNW1.6 kmh NNW 4.0 mph6.4 kmh 29.76 in1007.8 mb 0.03 in0.8 mm 0.04 in1.0 mm 0.44 in11.2 mm
06:30 PM 48.9°F9.4°C 47.0°F8.3°C 93% 4.0 mph NW6.4 kmh NW 8.0 mph12.9 kmh 29.76 in1007.8 mb 0.04 in1.0 mm 0.04 in1.0 mm 0.45 in11.4 mm
06:45 PM 48.9°F9.4°C 47.0°F8.3°C 93% 7.0 mph NW11.3 kmh NW 15.0 mph24.1 kmh 29.76 in1007.8 mb 0.04 in1.0 mm 0.00 in0.0 mm 0.46 in11.7 mm
07:00 PM 48.4°F9.1°C 46.2°F7.9°C 92% 10.0 mph NW16.1 kmh NW 20.0 mph32.2 kmh 29.77 in1008.1 mb 0.02 in0.5 mm 0.00 in0.0 mm 0.46 in11.7 mm
07:15 PM 47.5°F8.6°C 44.7°F7.1°C 90% 11.0 mph NW17.7 kmh NW 19.0 mph30.6 kmh 29.77 in1008.1 mb 0.02 in0.5 mm 0.00 in0.0 mm 0.46 in11.7 mm
07:30 PM 46.9°F8.3°C 43.9°F6.6°C 89% 10.0 mph NW16.1 kmh NW 18.0 mph29.0 kmh 29.77 in1008.1 mb 0.01 in0.3 mm 0.00 in0.0 mm 0.46 in11.7 mm
07:45 PM 46.6°F8.1°C 43.5°F6.4°C 89% 9.0 mph NW14.5 kmh NW 19.0 mph30.6 kmh 29.78 in1008.5 mb 0.00 in0.0 mm 0.00 in0.0 mm 0.46 in11.7 mm
08:00 PM 45.9°F7.7°C 42.8°F6.0°C 89% 8.0 mph NW12.9 kmh NW 15.0 mph24.1 kmh 29.79 in1008.8 mb 0.00 in0.0 mm 0.00 in0.0 mm 0.46 in11.7 mm
08:15 PM 45.1°F7.3°C 42.7°F5.9°C 91% 7.0 mph NW11.3 kmh NW 13.0 mph20.9 kmh 29.79 in1008.8 mb 0.00 in0.0 mm 0.00 in0.0 mm 0.46 in11.7 mm
08:30 PM 44.8°F7.1°C 42.3°F5.7°C 91% 7.0 mph NW11.3 kmh NW 16.0 mph25.7 kmh 29.79 in1008.8 mb 0.00 in0.0 mm 0.00 in0.0 mm 0.46 in11.7 mm
08:45 PM 44.4°F6.9°C 41.7°F5.4°C 90% 8.0 mph NW12.9 kmh NW 14.0 mph22.5 kmh 29.80 in1009.1 mb 0.00 in0.0 mm 0.00 in0.0 mm 0.46 in11.7 mm
09:00 PM 44.1°F6.7°C 41.3°F5.2°C 90% 7.0 mph NW11.3 kmh NW 15.0 mph24.1 kmh 29.80 in1009.1 mb 0.00 in0.0 mm 0.00 in0.0 mm 0.46 in11.7 mm
09:15 PM 43.5°F6.4°C 40.8°F4.9°C 90% 9.0 mph NW14.5 kmh NW 15.0 mph24.1 kmh 29.80 in1009.1 mb 0.00 in0.0 mm 0.00 in0.0 mm 0.46 in11.7 mm
09:30 PM 43.0°F6.1°C 40.5°F4.7°C 91% 8.0 mph NW12.9 kmh NW 15.0 mph24.1 kmh 29.81 in1009.5 mb 0.00 in0.0 mm 0.00 in0.0 mm 0.46 in11.7 mm
09:45 PM 42.4°F5.8°C 40.3°F4.6°C 92% 6.0 mph NW9.7 kmh NW 12.0 mph19.3 kmh 29.81 in1009.5 mb 0.01 in0.3 mm 0.04 in1.0 mm 0.46 in11.7 mm
10:00 PM 42.4°F5.8°C 40.3°F4.6°C 92% 4.0 mph NW6.4 kmh NW 10.0 mph16.1 kmh 29.82 in1009.8 mb 0.01 in0.3 mm 0.00 in0.0 mm 0.46 in11.7 mm
10:15 PM 42.4°F5.8°C 39.7°F4.3°C 90% 7.0 mph NW11.3 kmh NW 14.0 mph22.5 kmh 29.82 in1009.8 mb 0.01 in0.3 mm 0.00 in0.0 mm 0.46 in11.7 mm
10:30 PM 42.3°F5.7°C 39.0°F3.9°C 88% 8.0 mph WNW12.9 kmh WNW 16.0 mph25.7 kmh 29.82 in1009.8 mb 0.01 in0.3 mm 0.00 in0.0 mm 0.46 in11.7 mm
10:45 PM 41.9°F5.5°C 38.3°F3.5°C 87% 7.0 mph NW11.3 kmh NW 13.0 mph20.9 kmh 29.82 in1009.8 mb 0.00 in0.0 mm 0.00 in0.0 mm 0.46 in11.7 mm
11:00 PM 41.5°F5.3°C 38.0°F3.3°C 87% 6.0 mph WNW9.7 kmh WNW 10.0 mph16.1 kmh 29.82 in1009.8 mb 0.00 in0.0 mm 0.00 in0.0 mm 0.46 in11.7 mm
11:15 PM 41.4°F5.2°C 37.8°F3.2°C 87% 6.0 mph WNW9.7 kmh WNW 13.0 mph20.9 kmh 29.82 in1009.8 mb 0.00 in0.0 mm 0.00 in0.0 mm 0.46 in11.7 mm
11:30 PM 41.4°F5.2°C 37.8°F3.2°C 87% 5.0 mph W8.0 kmh W 10.0 mph16.1 kmh 29.82 in1009.8 mb 0.00 in0.0 mm 0.00 in0.0 mm 0.46 in11.7 mm
11:45 PM 41.2°F5.1°C 37.6°F3.1°C 87% 5.0 mph W8.0 kmh W 10.0 mph16.1 kmh 29.82 in1009.8 mb 0.00 in0.0 mm 0.00 in0.0 mm 0.46 in11.7 mm